Time;durP1;ratioP1;P1;durP2;ratioP2;P2;SDS_P1;SDS_P2;PMS_P1;PMS_P2;Temp;Humidity;BMP_temperature;BMP_pressure;BME280_temperature;BME280_humidity;BME280_pressure;Samples;Min_cycle;Max_cycle;Signal;HPM_P1;HPM_P2
2021/08/19 00:00:16;;;;;;;;;;;;;;;-144.99;100.00;52409.38;5032686;28;19969;-77
2021/08/19 00:02:44;;;;;;;;;;;;;;;-144.99;100.00;52472.56;5023690;28;20482;-77
2021/08/19 00:05:11;;;;;;;;;;;;;;;-144.99;100.00;52446.06;5038054;28;20172;-77
2021/08/19 00:07:37;;;;;;;;;;;;;;;-144.99;100.00;52439.94;5028254;28;19985;-77
2021/08/19 00:10:05;;;;;;;;;;;;;;;-144.99;100.00;52393.06;5029655;28;19979;-76
2021/08/19 00:12:32;;;;;;;;;;;;;;;-144.99;100.00;52444.03;5025798;28;20001;-76
2021/08/19 00:14:58;;;;;;;;;;;;;;;-144.99;100.00;52439.94;5029792;28;20450;-75
2021/08/19 00:17:24;;;;;;;;;;;;;;;-144.99;100.00;52407.31;5030571;28;19987;-75
2021/08/19 00:19:51;;;;;;;;;;;;;;;-144.99;100.00;52444.03;5031886;28;20413;-75
2021/08/19 00:22:17;;;;;;;;;;;;;;;-144.99;100.00;52435.88;5032711;28;20431;-75
2021/08/19 00:24:43;;;;;;;;;;;;;;;-144.99;100.00;52431.78;5022380;28;19988;-75
2021/08/19 00:27:11;;;;;;;;;;;;;;;-144.99;100.00;52472.56;5030210;28;20416;-76
2021/08/19 00:29:37;;;;;;;;;;;;;;;-144.99;100.00;52435.88;5030454;28;19971;-76
2021/08/19 00:32:04;;;;;;;;;;;;;;;-144.99;100.00;52423.63;5030092;28;20249;-74
2021/08/19 00:34:31;;;;;;;;;;;;;;;-144.99;100.00;52423.63;5030718;28;19970;-75
2021/08/19 00:36:57;;;;;;;;;;;;;;;-144.99;100.00;52407.31;5031987;28;19982;-74
2021/08/19 00:39:23;;;;;;;;;;;;;;;-144.99;100.00;52419.56;5031633;28;20625;-77
2021/08/19 00:41:50;;;;;;;;;;;;;;;-144.99;100.00;52450.13;5036208;28;19991;-76
2021/08/19 00:44:17;;;;;;;;;;;;;;;-144.99;100.00;52435.88;5029946;28;20006;-75
2021/08/19 00:46:44;;;;;;;;;;;;;;;-144.99;100.00;52427.72;5035633;28;20447;-75
2021/08/19 00:49:10;;;;;;;;;;;;;;;-144.99;100.00;52399.19;5032282;28;19976;-75
2021/08/19 00:51:38;;;;;;;;;;;;;;;-144.99;100.00;52439.94;5034262;28;19971;-77
2021/08/19 00:54:05;;;;;;;;;;;;;;;-144.99;100.00;52415.47;5034957;28;20157;-73
2021/08/19 00:56:32;;;;;;;;;;;;;;;-144.99;100.00;52462.34;5029948;28;19976;-76
2021/08/19 00:58:59;;;;;;;;;;;;;;;-144.99;100.00;52415.47;5033454;28;19986;-76
2021/08/19 01:01:26;;;;;;;;;;;;;;;-144.99;100.00;52437.91;5029030;28;19972;-76
2021/08/19 01:03:54;;;;;;;;;;;;;;;-144.99;100.00;52427.72;5018479;28;19974;-76
2021/08/19 01:06:20;;;;;;;;;;;;;;;-144.99;100.00;52439.94;5023693;28;19978;-76
2021/08/19 01:08:46;;;;;;;;;;;;;;;-144.99;100.00;52444.03;5030191;28;20477;-76
2021/08/19 01:11:13;;;;;;;;;;;;;;;-144.99;100.00;52435.88;5034741;28;19951;-74
2021/08/19 01:13:40;;;;;;;;;;;;;;;-144.99;100.00;52429.75;5031848;28;19995;-76
2021/08/19 01:16:07;;;;;;;;;;;;;;;-144.99;100.00;52439.94;5032183;28;19978;-75
2021/08/19 01:18:41;;;;;;;;;;;;;;;-144.99;100.00;52433.81;5040718;28;19978;-78
2021/08/19 01:21:07;;;;;;;;;;;;;;;-144.99;100.00;52435.88;5045885;28;20465;-75
2021/08/19 01:23:34;;;;;;;;;;;;;;;-144.99;100.00;52456.25;5040045;28;19981;-75
2021/08/19 01:26:02;;;;;;;;;;;;;;;-144.99;100.00;52441.97;5033302;28;19991;-75
2021/08/19 01:28:30;;;;;;;;;;;;;;;-144.99;100.00;52460.31;5040790;28;19986;-75
2021/08/19 01:30:56;;;;;;;;;;;;;;;-144.99;100.00;52419.56;5036081;28;20144;-75
2021/08/19 01:33:24;;;;;;;;;;;;;;;-144.99;100.00;52439.94;5050722;28;19997;-76
2021/08/19 01:35:51;;;;;;;;;;;;;;;-144.99;100.00;52431.78;5038174;28;19972;-75
2021/08/19 01:38:17;;;;;;;;;;;;;;;-144.99;100.00;52450.13;5037301;28;19975;-74
2021/08/19 01:40:43;;;;;;;;;;;;;;;-144.99;100.00;52460.31;5042061;28;19971;-74
2021/08/19 01:43:10;;;;;;;;;;;;;;;-144.99;100.00;52448.09;5037616;28;20545;-74
2021/08/19 01:45:37;;;;;;;;;;;;;;;-144.99;100.00;52433.81;5033295;28;19988;-74
2021/08/19 01:48:04;;;;;;;;;;;;;;;-144.99;100.00;52399.19;5027485;28;20005;-73
2021/08/19 01:50:30;;;;;;;;;;;;;;;-144.99;100.00;52444.03;5033931;28;19979;-73
2021/08/19 01:52:56;;;;;;;;;;;;;;;-144.99;100.00;52409.38;5039693;28;20003;-75
2021/08/19 01:55:23;;;;;;;;;;;;;;;-144.99;100.00;52435.88;5026355;28;19977;-74
2021/08/19 01:57:49;;;;;;;;;;;;;;;-144.99;100.00;52470.50;5028071;28;19972;-73
2021/08/19 02:00:16;;;;;;;;;;;;;;;-144.99;100.00;52470.50;5028321;28;20029;-73
2021/08/19 02:02:44;;;;;;;;;;;;;;;-144.99;100.00;52472.56;5026897;28;20000;-73
2021/08/19 02:05:11;;;;;;;;;;;;;;;-144.99;100.00;52423.63;5025655;28;19988;-73
2021/08/19 02:07:38;;;;;;;;;;;;;;;-144.99;100.00;52448.09;5028092;28;19973;-73
2021/08/19 02:10:07;;;;;;;;;;;;;;;-144.99;100.00;52425.66;5025601;28;19976;-73
2021/08/19 02:12:33;;;;;;;;;;;;;;;-144.99;100.00;52419.56;5022826;28;20055;-74
2021/08/19 02:15:00;;;;;;;;;;;;;;;-144.99;100.00;52460.31;5019776;28;19979;-73
2021/08/19 02:17:26;;;;;;;;;;;;;;;-144.99;100.00;52431.78;5028749;28;19976;-75
2021/08/19 02:19:54;;;;;;;;;;;;;;;-144.99;100.00;52419.56;5031291;28;19992;-73
2021/08/19 02:22:20;;;;;;;;;;;;;;;-144.99;100.00;52439.94;5025746;28;19988;-73
2021/08/19 02:24:48;;;;;;;;;;;;;;;-144.99;100.00;52444.03;5027598;28;19989;-72
2021/08/19 02:27:14;;;;;;;;;;;;;;;-144.99;100.00;52439.94;5025494;28;19942;-72
2021/08/19 02:29:40;;;;;;;;;;;;;;;-144.99;100.00;52452.16;5025620;28;19979;-73
2021/08/19 02:32:07;;;;;;;;;;;;;;;-144.99;100.00;52446.06;5023813;28;19993;-74
2021/08/19 02:34:34;;;;;;;;;;;;;;;-144.99;100.00;52460.31;5032228;28;19973;-75
2021/08/19 02:37:01;;;;;;;;;;;;;;;-144.99;100.00;52472.56;5030929;28;19998;-75
2021/08/19 02:39:28;;;;;;;;;;;;;;;-144.99;100.00;52423.63;5034466;28;19976;-75
2021/08/19 02:41:54;;;;;;;;;;;;;;;-144.99;100.00;52446.06;5035938;28;19993;-76
2021/08/19 02:44:20;;;;;;;;;;;;;;;-144.99;100.00;52448.09;5032517;28;20640;-75
2021/08/19 02:46:46;;;;;;;;;;;;;;;-144.99;100.00;52448.09;5029156;28;19963;-75
2021/08/19 02:49:13;;;;;;;;;;;;;;;-144.99;100.00;52448.09;5032517;28;19988;-75
2021/08/19 02:51:41;;;;;;;;;;;;;;;-144.99;100.00;52431.78;5038843;28;19973;-75
2021/08/19 02:54:08;;;;;;;;;;;;;;;-144.99;100.00;52452.16;5034696;28;19983;-75
2021/08/19 02:56:35;;;;;;;;;;;;;;;-144.99;100.00;52444.03;5029419;28;20354;-74
2021/08/19 02:59:01;;;;;;;;;;;;;;;-144.99;100.00;52423.63;5046479;28;20075;-75
2021/08/19 03:01:28;;;;;;;;;;;;;;;-144.99;100.00;52464.41;5036283;28;19978;-75
2021/08/19 03:03:54;;;;;;;;;;;;;;;-144.99;100.00;52460.31;5034105;28;19980;-74
2021/08/19 03:06:20;;;;;;;;;;;;;;;-144.99;100.00;52429.75;5032038;28;19992;-75
2021/08/19 03:08:47;;;;;;;;;;;;;;;-144.99;100.00;52401.22;5036296;28;20436;-73
2021/08/19 03:11:14;;;;;;;;;;;;;;;-144.99;100.00;52448.09;5031720;28;19976;-75
2021/08/19 03:13:41;;;;;;;;;;;;;;;-144.99;100.00;52439.94;5020992;28;19996;-74
2021/08/19 03:16:07;;;;;;;;;;;;;;;-144.99;100.00;52460.31;5030947;28;19977;-74
2021/08/19 03:18:34;;;;;;;;;;;;;;;-144.99;100.00;52446.06;5029108;28;19991;-74
2021/08/19 03:21:00;;;;;;;;;;;;;;;-144.99;100.00;52456.25;5035664;28;20067;-74
2021/08/19 03:23:27;;;;;;;;;;;;;;;-144.99;100.00;52452.16;5033688;28;20004;-75
2021/08/19 03:25:53;;;;;;;;;;;;;;;-144.99;100.00;52441.97;5035303;28;19992;-76
2021/08/19 03:28:22;;;;;;;;;;;;;;;-144.99;100.00;52448.09;5047307;28;19976;-76
2021/08/19 03:30:48;;;;;;;;;;;;;;;-144.99;100.00;52431.78;5040817;28;20076;-75
2021/08/19 03:33:16;;;;;;;;;;;;;;;-144.99;100.00;52448.09;5030301;28;20071;-75
2021/08/19 03:35:42;;;;;;;;;;;;;;;-144.99;100.00;52458.28;5040588;28;20205;-75
2021/08/19 03:38:09;;;;;;;;;;;;;;;-144.99;100.00;52488.84;5028875;28;19995;-75
2021/08/19 03:40:35;;;;;;;;;;;;;;;-144.99;100.00;52431.78;5027117;28;20451;-74
2021/08/19 03:43:02;;;;;;;;;;;;;;;-144.99;100.00;52427.72;5034536;28;19993;-74
2021/08/19 03:45:30;;;;;;;;;;;;;;;-144.99;100.00;52452.16;5033973;28;20506;-76
2021/08/19 03:47:56;;;;;;;;;;;;;;;-144.99;100.00;52435.88;5025988;28;19977;-75
2021/08/19 03:50:23;;;;;;;;;;;;;;;-144.99;100.00;52431.78;5030613;28;19983;-76
2021/08/19 03:52:50;;;;;;;;;;;;;;;-144.99;100.00;52435.88;5020898;28;19999;-76
2021/08/19 03:55:16;;;;;;;;;;;;;;;-144.99;100.00;52452.16;5028815;28;19981;-76
2021/08/19 03:57:42;;;;;;;;;;;;;;;-144.99;100.00;52419.56;5029043;28;19972;-76
2021/08/19 04:00:10;;;;;;;;;;;;;;;-144.99;100.00;52435.88;5037171;28;19987;-76
2021/08/19 04:02:37;;;;;;;;;;;;;;;-144.99;100.00;52446.06;5035020;28;19995;-75
2021/08/19 04:05:04;;;;;;;;;;;;;;;-144.99;100.00;52456.25;5031753;28;19996;-75
2021/08/19 04:07:30;;;;;;;;;;;;;;;-144.99;100.00;52448.09;5025420;28;20367;-75
2021/08/19 04:09:56;;;;;;;;;;;;;;;-144.99;100.00;52458.28;5032719;28;19979;-76
2021/08/19 04:12:23;;;;;;;;;;;;;;;-144.99;100.00;52403.25;5027887;28;19998;-74
2021/08/19 04:14:49;;;;;;;;;;;;;;;-144.99;100.00;52456.25;5032388;28;20051;-74
2021/08/19 04:17:15;;;;;;;;;;;;;;;-144.99;100.00;52439.94;5030264;28;20412;-75
2021/08/19 04:19:43;;;;;;;;;;;;;;;-144.99;100.00;52431.78;5019269;28;19973;-74
2021/08/19 04:22:09;;;;;;;;;;;;;;;-144.99;100.00;52419.56;5030965;28;19993;-69
2021/08/19 04:24:36;;;;;;;;;;;;;;;-144.99;100.00;52421.59;5028331;28;19977;-70
2021/08/19 04:27:02;;;;;;;;;;;;;;;-144.99;100.00;52448.09;5029280;28;20331;-70
2021/08/19 04:29:31;;;;;;;;;;;;;;;-144.99;100.00;52423.63;5027775;28;19976;-70
2021/08/19 04:31:59;;;;;;;;;;;;;;;-144.99;100.00;52384.91;5030290;28;19993;-70
2021/08/19 04:34:25;;;;;;;;;;;;;;;-144.99;100.00;52427.72;5035044;28;20447;-70
2021/08/19 04:36:53;;;;;;;;;;;;;;;-144.99;100.00;52391.03;5035172;28;19977;-71
2021/08/19 04:39:19;;;;;;;;;;;;;;;-144.99;100.00;52423.63;5025435;28;20370;-72
2021/08/19 04:41:46;;;;;;;;;;;;;;;-144.99;100.00;52444.03;5031620;28;19999;-77
2021/08/19 04:44:12;;;;;;;;;;;;;;;-144.99;100.00;52415.47;5032171;28;19981;-78
2021/08/19 04:46:39;;;;;;;;;;;;;;;-144.99;100.00;52409.38;5032007;28;19988;-77
2021/08/19 04:49:06;;;;;;;;;;;;;;;-144.99;100.00;52452.16;5037128;28;19976;-77
2021/08/19 04:51:33;;;;;;;;;;;;;;;-144.99;100.00;52464.41;5032336;28;20501;-76
2021/08/19 04:54:01;;;;;;;;;;;;;;;-144.99;100.00;52439.94;5035315;28;20003;-76
2021/08/19 04:56:29;;;;;;;;;;;;;;;-144.99;100.00;52427.72;5030265;28;19995;-76
2021/08/19 04:58:56;;;;;;;;;;;;;;;-144.99;100.00;52439.94;5026919;28;19981;-75
2021/08/19 05:01:22;;;;;;;;;;;;;;;-144.99;100.00;52409.38;5029209;28;19972;-71
2021/08/19 05:03:48;;;;;;;;;;;;;;;-144.99;100.00;52427.72;5029153;28;20471;-75
2021/08/19 05:06:15;;;;;;;;;;;;;;;-144.99;100.00;52448.09;5024865;28;20651;-74
2021/08/19 05:08:41;;;;;;;;;;;;;;;-144.99;100.00;52460.31;5032489;28;19973;-74
2021/08/19 05:11:09;;;;;;;;;;;;;;;-144.99;100.00;52435.88;5037619;28;19976;-74
2021/08/19 05:13:35;;;;;;;;;;;;;;;-144.99;100.00;52460.31;5034620;28;20169;-77
2021/08/19 05:16:02;;;;;;;;;;;;;;;-144.99;100.00;52419.56;4341614;28;10000792;-76
2021/08/19 05:18:28;;;;;;;;;;;;;;;-144.99;100.00;52441.97;4680356;28;10000323;-74
2021/08/19 05:20:55;;;;;;;;;;;;;;;-144.99;100.00;52435.88;5039004;28;20535;-76
2021/08/19 05:23:21;;;;;;;;;;;;;;;-144.99;100.00;52439.94;5036731;28;19987;-78
2021/08/19 05:25:47;;;;;;;;;;;;;;;-144.99;100.00;52444.03;5043231;28;19996;-75
2021/08/19 05:28:15;;;;;;;;;;;;;;;-144.99;100.00;52448.09;5041752;28;19980;-75
2021/08/19 05:30:41;;;;;;;;;;;;;;;-144.99;100.00;52431.78;5031835;28;19973;-77
2021/08/19 05:33:08;;;;;;;;;;;;;;;-144.99;100.00;52407.31;5033072;28;19996;-74
2021/08/19 05:35:34;;;;;;;;;;;;;;;-144.99;100.00;52411.41;5038620;28;19956;-73
2021/08/19 05:38:00;;;;;;;;;;;;;;;-144.99;100.00;52437.91;5035157;28;19981;-74
2021/08/19 05:40:27;;;;;;;;;;;;;;;-144.99;100.00;52427.72;5031880;28;20959;-76
2021/08/19 05:42:53;;;;;;;;;;;;;;;-144.99;100.00;52423.63;5030262;28;20479;-74
2021/08/19 05:45:21;;;;;;;;;;;;;;;-144.99;100.00;52441.97;5038528;28;19976;-74
2021/08/19 05:47:47;;;;;;;;;;;;;;;-144.99;100.00;52435.88;5033247;28;20382;-75
2021/08/19 05:50:13;;;;;;;;;;;;;;;-144.99;100.00;52439.94;5039689;28;19987;-75
2021/08/19 05:52:40;;;;;;;;;;;;;;;-144.99;100.00;52391.03;5038282;28;19997;-76
2021/08/19 05:55:07;;;;;;;;;;;;;;;-144.99;100.00;52448.09;5034372;28;20135;-74
2021/08/19 05:57:33;;;;;;;;;;;;;;;-144.99;100.00;52419.56;5032002;28;19977;-73
2021/08/19 05:59:59;;;;;;;;;;;;;;;-144.99;100.00;52446.06;5031485;28;19984;-72
2021/08/19 06:02:27;;;;;;;;;;;;;;;-144.99;100.00;52448.09;5026870;28;20517;-76
2021/08/19 06:04:53;;;;;;;;;;;;;;;-144.99;100.00;52444.03;5034171;28;19981;-74
2021/08/19 06:07:20;;;;;;;;;;;;;;;-144.99;100.00;52454.22;5034403;28;19929;-74
2021/08/19 06:09:47;;;;;;;;;;;;;;;-144.99;100.00;52456.25;5040165;28;19976;-75
2021/08/19 06:12:13;;;;;;;;;;;;;;;-144.99;100.00;52452.16;5036436;28;20107;-75
2021/08/19 06:14:40;;;;;;;;;;;;;;;-144.99;100.00;52421.59;5037077;28;19977;-74
2021/08/19 06:17:06;;;;;;;;;;;;;;;-144.99;100.00;52431.78;5036007;28;20382;-75
2021/08/19 06:19:34;;;;;;;;;;;;;;;-144.99;100.00;52444.03;5037410;28;19977;-77
2021/08/19 06:22:01;;;;;;;;;;;;;;;-144.99;100.00;52419.56;5034132;28;20004;-73
2021/08/19 06:24:27;;;;;;;;;;;;;;;-144.99;100.00;52454.22;5035150;28;20318;-74
2021/08/19 06:26:53;;;;;;;;;;;;;;;-144.99;100.00;52448.09;5030198;28;19993;-75
2021/08/19 06:29:20;;;;;;;;;;;;;;;-144.99;100.00;52407.31;5033272;28;19980;-75
2021/08/19 06:31:46;;;;;;;;;;;;;;;-144.99;100.00;52427.72;5029921;28;20199;-74
2021/08/19 06:34:12;;;;;;;;;;;;;;;-144.99;100.00;52435.88;5032358;28;19981;-76
2021/08/19 06:36:40;;;;;;;;;;;;;;;-144.99;100.00;52423.63;5038748;28;19974;-74
2021/08/19 06:39:06;;;;;;;;;;;;;;;-144.99;100.00;52439.94;5031002;28;20238;-77
2021/08/19 06:41:33;;;;;;;;;;;;;;;-144.99;100.00;52423.63;5036406;28;19982;-76
2021/08/19 06:43:59;;;;;;;;;;;;;;;-144.99;100.00;52448.09;5033987;28;19977;-74
2021/08/19 06:46:25;;;;;;;;;;;;;;;-144.99;100.00;52415.47;5033440;28;20158;-77
2021/08/19 06:48:52;;;;;;;;;;;;;;;-144.99;100.00;52423.63;5030942;28;19978;-76
2021/08/19 06:51:18;;;;;;;;;;;;;;;-144.99;100.00;52460.31;5038392;28;19983;-77
2021/08/19 06:53:50;;;;;;;;;;;;;;;-144.99;100.00;52411.41;5030380;28;20004;-77
2021/08/19 06:56:16;;;;;;;;;;;;;;;-144.99;100.00;52423.63;5027062;28;19989;-75
2021/08/19 06:58:43;;;;;;;;;;;;;;;-144.99;100.00;52419.56;5030748;28;20335;-78
2021/08/19 07:01:09;;;;;;;;;;;;;;;-144.99;100.00;52411.41;5036104;28;19984;-77
2021/08/19 07:03:35;;;;;;;;;;;;;;;-144.99;100.00;52419.56;5038923;28;20554;-74
2021/08/19 07:06:02;;;;;;;;;;;;;;;-144.99;100.00;52439.94;5031565;28;20310;-75
2021/08/19 07:08:28;;;;;;;;;;;;;;;-144.99;100.00;52439.94;5034248;28;19978;-74
2021/08/19 07:10:56;;;;;;;;;;;;;;;-144.99;100.00;52415.47;5026780;28;19980;-76
2021/08/19 07:13:22;;;;;;;;;;;;;;;-144.99;100.00;52433.81;5034121;28;19996;-76
2021/08/19 07:15:49;;;;;;;;;;;;;;;-144.99;100.00;52380.84;5039567;28;19977;-75
2021/08/19 07:18:15;;;;;;;;;;;;;;;-144.99;100.00;52417.53;5030218;28;19985;-75
2021/08/19 07:20:41;;;;;;;;;;;;;;;-144.99;100.00;52448.09;5044867;28;20026;-78
2021/08/19 07:23:08;;;;;;;;;;;;;;;-144.99;100.00;52399.19;5040059;28;19993;-78
2021/08/19 07:25:34;;;;;;;;;;;;;;;-144.99;100.00;52409.38;5036384;28;19973;-75
2021/08/19 07:28:02;;;;;;;;;;;;;;;-144.99;100.00;52391.03;5030191;28;20091;-77
2021/08/19 07:30:28;;;;;;;;;;;;;;;-144.99;100.00;52403.25;5026509;28;20775;-77
2021/08/19 07:32:55;;;;;;;;;;;;;;;-144.99;100.00;52401.22;5029150;28;20001;-77
2021/08/19 07:35:21;;;;;;;;;;;;;;;-144.99;100.00;52382.88;5028704;28;19984;-76
2021/08/19 07:37:49;;;;;;;;;;;;;;;-144.99;100.00;52415.47;5027038;28;19977;-76
2021/08/19 07:40:16;;;;;;;;;;;;;;;-144.99;100.00;52415.47;5025023;28;20253;-74
2021/08/19 07:42:43;;;;;;;;;;;;;;;-144.99;100.00;52391.03;5030700;28;20003;-76
2021/08/19 07:45:11;;;;;;;;;;;;;;;-144.99;100.00;52415.47;5029897;28;20169;-75
2021/08/19 07:47:38;;;;;;;;;;;;;;;-144.99;100.00;52386.94;5023346;28;20000;-79
2021/08/19 07:50:04;;;;;;;;;;;;;;;-144.99;100.00;52413.44;5027300;28;20552;-75
2021/08/19 07:52:31;;;;;;;;;;;;;;;-144.99;100.00;52417.53;5026776;28;19989;-75
2021/08/19 07:54:57;;;;;;;;;;;;;;;-144.99;100.00;52393.06;5025980;28;20587;-76
2021/08/19 07:57:24;;;;;;;;;;;;;;;-144.99;100.00;52399.19;5022925;28;19977;-75
2021/08/19 07:59:50;;;;;;;;;;;;;;;-144.99;100.00;52419.56;5030678;28;19983;-77
2021/08/19 08:02:18;;;;;;;;;;;;;;;-144.99;100.00;52427.72;5025961;28;19997;-76
2021/08/19 08:04:44;;;;;;;;;;;;;;;-144.99;100.00;52395.09;5027146;28;20472;-75
2021/08/19 08:07:10;;;;;;;;;;;;;;;-144.99;100.00;52378.78;5026275;28;20007;-77
2021/08/19 08:09:37;;;;;;;;;;;;;;;-144.99;100.00;52374.72;5026969;28;19988;-79
2021/08/19 08:12:04;;;;;;;;;;;;;;;-144.99;100.00;52370.63;5023249;28;20239;-78
2021/08/19 08:14:30;;;;;;;;;;;;;;;-144.99;100.00;52362.50;5020374;28;20000;-78
2021/08/19 08:16:56;;;;;;;;;;;;;;;-144.99;100.00;52354.34;5034950;28;20110;-76
2021/08/19 08:19:24;;;;;;;;;;;;;;;-144.99;100.00;52395.09;5025548;28;19995;-76
2021/08/19 08:21:50;;;;;;;;;;;;;;;-144.99;100.00;52411.41;5027373;28;19992;-76
2021/08/19 08:24:17;;;;;;;;;;;;;;;-144.99;100.00;52382.88;5036701;28;20083;-76
2021/08/19 08:26:43;;;;;;;;;;;;;;;-144.99;98.46;52380.84;5027178;28;19989;-77
2021/08/19 08:29:10;;;;;;;;;;;;;;;-144.99;97.74;52382.88;5034138;28;19991;-77
2021/08/19 08:31:37;;;;;;;;;;;;;;;-144.99;97.73;52352.28;5029329;28;20131;-77
2021/08/19 08:34:04;;;;;;;;;;;;;;;-144.99;97.06;52352.28;5026682;28;19980;-80
2021/08/19 08:36:32;;;;;;;;;;;;;;;-144.99;96.54;52346.19;5030639;28;20528;-75
2021/08/19 08:38:58;;;;;;;;;;;;;;;-144.99;94.20;52362.50;5032303;28;20088;-76
2021/08/19 08:41:25;;;;;;;;;;;;;;;-144.99;92.17;52342.09;5031038;28;19988;-77
2021/08/19 08:43:53;;;;;;;;;;;;;;;-144.99;92.00;52338.03;5030470;28;19971;-78
2021/08/19 08:46:19;;;;;;;;;;;;;;;-144.99;90.45;52358.41;5028789;28;19979;-77
2021/08/19 08:48:48;;;;;;;;;;;;;;;-144.99;89.04;52325.81;5022339;28;19973;-77
2021/08/19 08:51:15;;;;;;;;;;;;;;;-144.99;86.87;52333.94;5022325;28;19984;-78
2021/08/19 08:53:43;;;;;;;;;;;;;;;-144.99;84.89;52350.25;5028380;28;20002;-76
2021/08/19 08:56:09;;;;;;;;;;;;;;;-144.99;84.20;52321.72;5027928;28;19977;-77
2021/08/19 08:58:35;;;;;;;;;;;;;;;-144.99;83.55;52356.38;5029005;28;19976;-76
2021/08/19 09:01:03;;;;;;;;;;;;;;;-144.99;82.20;52321.72;5027123;28;20000;-74
2021/08/19 09:03:29;;;;;;;;;;;;;;;-144.99;83.04;52301.34;5030358;28;20440;-76
2021/08/19 09:05:56;;;;;;;;;;;;;;;-144.99;82.55;52340.06;5034499;28;20481;-77
2021/08/19 09:08:26;;;;;;;;;;;;;;;-144.99;82.65;52386.94;5031720;28;20035;-80
2021/08/19 09:10:55;;;;;;;;;;;;;;;-144.99;83.04;52342.09;5029807;28;19976;-79
2021/08/19 09:13:23;;;;;;;;;;;;;;;-144.99;83.29;52342.09;5031235;28;19988;-78
2021/08/19 09:15:50;;;;;;;;;;;;;;;-144.99;82.66;52356.38;5039647;28;19972;-78
2021/08/19 09:18:28;;;;;;;;;;;;;;;-144.99;82.41;52374.72;5047416;28;19980;-77
2021/08/19 09:20:55;;;;;;;;;;;;;;;-144.99;82.19;52364.53;5030440;28;19991;-80
2021/08/19 09:23:21;;;;;;;;;;;;;;;-144.99;83.53;52370.63;5027199;28;20494;-79
2021/08/19 09:25:47;;;;;;;;;;;;;;;-144.99;84.30;52366.56;5037640;28;19991;-78
2021/08/19 09:28:17;;;;;;;;;;;;;;;-144.99;84.66;52362.50;5034288;28;20526;-77
2021/08/19 09:30:44;;;;;;;;;;;;;;;-144.99;83.96;52346.19;5032445;28;20366;-76
2021/08/19 09:33:11;;;;;;;;;;;;;;;-144.99;83.16;52338.03;5028185;28;19994;-79
2021/08/19 09:35:38;;;;;;;;;;;;;;;-144.99;84.31;52372.69;5028913;28;19980;-78
2021/08/19 09:38:08;;;;;;;;;;;;;;;-144.99;84.29;52350.25;5031136;28;19991;-76
2021/08/19 09:40:35;;;;;;;;;;;;;;;-144.99;83.31;52346.19;5027671;28;20002;-77
2021/08/19 09:43:01;;;;;;;;;;;;;;;-144.99;84.03;52382.88;5033696;28;20000;-79
2021/08/19 09:45:29;;;;;;;;;;;;;;;-144.99;84.31;52376.75;5038463;28;19992;-79
2021/08/19 09:48:06;;;;;;;;;;;;;;;-144.99;84.25;52386.94;5041163;28;20001;-77
2021/08/19 09:50:33;;;;;;;;;;;;;;;-144.99;84.71;52382.88;5041922;28;19984;-78
2021/08/19 09:53:13;;;;;;;;;;;;;;;-144.99;85.30;52360.44;5033996;28;20022;-79
2021/08/19 09:55:41;;;;;;;;;;;;;;;-144.99;85.38;52342.09;5026128;28;20430;-77
2021/08/19 09:58:08;;;;;;;;;;;;;;;-144.99;85.49;52354.34;5034615;28;19980;-78
2021/08/19 10:00:38;;;;;;;;;;;;;;;-144.99;85.67;52358.41;5032046;28;20035;-77
2021/08/19 10:03:04;;;;;;;;;;;;;;;-144.99;86.20;52370.63;5026596;28;19999;-77
2021/08/19 10:05:31;;;;;;;;;;;;;;;-144.99;85.55;52360.44;5034935;28;19979;-77
2021/08/19 10:07:58;;;;;;;;;;;;;;;-144.99;84.92;52358.41;5031734;28;20006;-78
2021/08/19 10:10:26;;;;;;;;;;;;;;;-144.99;85.02;52370.63;5021748;28;19977;-76
2021/08/19 10:12:52;;;;;;;;;;;;;;;-144.99;83.09;52317.66;5026940;28;20470;-77
2021/08/19 10:15:20;;;;;;;;;;;;;;;-144.99;82.92;52333.94;5030026;28;19990;-75
2021/08/19 10:17:48;;;;;;;;;;;;;;;-144.99;82.74;52350.25;5024758;28;20056;-75
2021/08/19 10:20:17;;;;;;;;;;;;;;;-144.99;82.45;52358.41;5025316;28;19987;-78
2021/08/19 10:22:43;;;;;;;;;;;;;;;-144.99;82.44;52325.81;5019248;28;19993;-75
2021/08/19 10:25:10;;;;;;;;;;;;;;;-144.99;82.63;52348.22;5017542;28;19995;-77
2021/08/19 10:27:36;;;;;;;;;;;;;;;-144.99;82.55;52293.19;5040062;28;20002;-77
2021/08/19 10:30:04;;;;;;;;;;;;;;;-144.99;80.33;52283.00;5033135;28;19959;-77
2021/08/19 10:32:32;;;;;;;;;;;;;;;-144.99;78.75;52250.38;5023374;28;20002;-77
2021/08/19 10:35:06;;;;;;;;;;;;;;;-144.99;76.25;52205.53;5032919;28;20451;-78
2021/08/19 10:37:51;;;;;;;;;;;;;;;-144.99;74.76;52203.50;5032891;28;20215;-78
2021/08/19 10:40:31;;;;;;;;;;;;;;;-144.99;71.70;52295.22;5033309;28;19953;-77
2021/08/19 10:42:58;;;;;;;;;;;;;;;-144.99;72.56;52256.50;5024128;28;19997;-77
2021/08/19 10:45:41;;;;;;;;;;;;;;;-144.99;71.65;52146.44;5024021;28;20800;-77
2021/08/19 10:48:21;;;;;;;;;;;;;;;-144.99;70.77;52278.91;5029675;28;20401;-76
2021/08/19 10:50:49;;;;;;;;;;;;;;;-144.99;69.45;52303.38;5025299;28;19971;-76
2021/08/19 10:53:16;;;;;;;;;;;;;;;-144.99;70.58;52317.66;5025120;28;20049;-77
2021/08/19 10:55:43;;;;;;;;;;;;;;;-144.99;72.42;52283.00;5035565;28;19982;-77
2021/08/19 10:58:23;;;;;;;;;;;;;;;-144.99;73.07;52297.25;5033027;28;20024;-77
2021/08/19 11:00:49;;;;;;;;;;;;;;;-144.99;74.27;52295.22;5032717;28;19971;-77
2021/08/19 11:03:34;;;;;;;;;;;;;;;-144.99;75.14;52338.03;5034122;28;20042;-78
2021/08/19 11:06:03;;;;;;;;;;;;;;;-144.99;75.79;52313.56;5026111;28;20023;-76
2021/08/19 11:08:39;;;;;;;;;;;;;;;-144.99;76.68;52346.19;5026099;28;19992;-80
2021/08/19 11:11:06;;;;;;;;;;;;;;;-144.99;77.46;52323.75;5026527;28;19993;-78
2021/08/19 11:13:34;;;;;;;;;;;;;;;-144.99;77.86;52378.78;5024430;28;19991;-77
2021/08/19 11:16:01;;;;;;;;;;;;;;;-144.99;78.60;52362.50;5038968;28;19979;-76
2021/08/19 11:18:28;;;;;;;;;;;;;;;-144.99;78.89;52352.28;5042173;28;19937;-81
2021/08/19 11:20:55;;;;;;;;;;;;;;;-144.99;78.32;52313.56;5046905;28;19948;-76
2021/08/19 11:23:28;;;;;;;;;;;;;;;-144.99;77.52;52272.81;5034165;28;19932;-77
2021/08/19 11:26:02;;;;;;;;;;;;;;;-144.99;75.97;52329.88;5035407;28;20232;-76
2021/08/19 11:28:34;;;;;;;;;;;;;;;-144.99;73.86;52305.41;5037407;28;20276;-77
2021/08/19 11:31:00;;;;;;;;;;;;;;;-144.99;75.53;52329.88;5033081;28;20367;-75
2021/08/19 11:33:27;;;;;;;;;;;;;;;-144.99;75.57;52370.63;5026921;28;20440;-76
2021/08/19 11:35:54;;;;;;;;;;;;;;;-144.99;76.93;52325.81;5033118;28;19945;-77
2021/08/19 11:38:22;;;;;;;;;;;;;;;-144.99;76.91;52393.06;5022786;28;19937;-77
2021/08/19 11:40:51;;;;;;;;;;;;;;;-144.99;77.03;52346.19;5024445;28;19933;-77
2021/08/19 11:43:21;;;;;;;;;;;;;;;-144.99;77.09;52342.09;5025477;28;19956;-76
2021/08/19 11:45:48;;;;;;;;;;;;;;;-144.99;76.24;52325.81;5029670;28;20017;-77
2021/08/19 11:48:14;;;;;;;;;;;;;;;-144.99;75.65;52285.03;5024691;28;19933;-77
2021/08/19 11:50:41;;;;;;;;;;;;;;;-144.99;74.60;52315.59;5021138;28;19935;-78
2021/08/19 11:53:08;;;;;;;;;;;;;;;-144.99;73.20;52293.19;5023914;28;19957;-76
2021/08/19 11:55:36;;;;;;;;;;;;;;;-144.99;71.96;52289.13;5024472;28;19937;-76
2021/08/19 11:58:20;;;;;;;;;;;;;;;-144.99;71.83;52354.34;5025535;28;20291;-76
2021/08/19 12:00:57;;;;;;;;;;;;;;;-144.99;69.62;52138.28;5024764;28;20536;-75
2021/08/19 12:03:23;;;;;;;;;;;;;;;-144.99;67.99;52240.19;5029064;28;19930;-78
2021/08/19 12:05:58;;;;;;;;;;;;;;;-144.99;65.90;52191.28;5023699;28;19955;-76
2021/08/19 12:08:25;;;;;;;;;;;;;;;-144.99;64.39;52203.50;5020457;28;20432;-77
2021/08/19 12:10:51;;;;;;;;;;;;;;;-144.99;61.06;52162.75;5025637;28;19944;-79
2021/08/19 12:13:17;;;;;;;;;;;;;;;-144.99;61.19;52113.84;5023937;28;20489;-76
2021/08/19 12:15:46;;;;;;;;;;;;;;;-144.99;60.77;52121.97;5026532;28;19990;-77
2021/08/19 12:18:13;;;;;;;;;;;;;;;-144.99;59.40;52172.94;5026200;28;19980;-79
2021/08/19 12:20:39;;;;;;;;;;;;;;;-144.99;57.64;52207.59;5025124;28;20335;-79